createdAt,value
2023-09-23T00:00:25.209Z,2.67
2023-09-23T00:03:28.265Z,3.00
2023-09-23T00:06:31.249Z,2.97
2023-09-23T00:09:34.260Z,3.00
2023-09-23T00:12:37.872Z,2.90
2023-09-23T00:15:43.718Z,3.05
2023-09-23T00:18:46.416Z,3.05
2023-09-23T00:21:50.577Z,2.80
2023-09-23T00:24:55.526Z,3.08
2023-09-23T00:27:58.147Z,2.97
2023-09-23T00:31:16.079Z,2.97
2023-09-23T00:34:18.802Z,3.65
2023-09-23T00:37:21.660Z,3.40
2023-09-23T00:40:28.949Z,3.00
2023-09-23T00:43:33.767Z,2.73
2023-09-23T00:46:37.666Z,3.10
2023-09-23T00:49:46.156Z,3.20
2023-09-23T00:52:53.800Z,3.13
2023-09-23T00:55:58.657Z,3.30
2023-09-23T00:59:01.382Z,2.93
2023-09-23T01:02:06.261Z,2.92
2023-09-23T01:05:09.487Z,3.10
2023-09-23T01:08:26.748Z,3.13
2023-09-23T01:11:31.184Z,2.90
2023-09-23T01:14:34.205Z,2.60
2023-09-23T01:17:37.316Z,2.70
2023-09-23T01:20:43.479Z,3.15
2023-09-23T01:23:46.689Z,2.90
2023-09-23T01:26:53.893Z,3.00
2023-09-23T01:29:57.668Z,3.00
2023-09-23T01:33:00.535Z,3.05
2023-09-23T01:36:04.506Z,2.92
2023-09-23T01:39:08.683Z,3.08
2023-09-23T01:42:12.867Z,2.95
2023-09-23T01:45:16.462Z,3.20
2023-09-23T01:48:21.150Z,2.97
2023-09-23T01:51:25.336Z,2.92
2023-09-23T01:54:28.312Z,2.80
2023-09-23T01:57:32.033Z,2.92
2023-09-23T02:00:37.411Z,2.90
2023-09-23T02:03:40.224Z,2.83
2023-09-23T02:06:43.744Z,3.10
2023-09-23T02:09:46.826Z,2.90
2023-09-23T02:12:49.536Z,3.13
2023-09-23T02:15:54.034Z,3.10
2023-09-23T02:18:56.881Z,3.05
2023-09-23T02:22:02.474Z,2.55
2023-09-23T02:25:06.186Z,2.85
2023-09-23T02:28:09.113Z,3.30
2023-09-23T02:31:12.019Z,3.00
2023-09-23T02:34:17.788Z,2.80
2023-09-23T02:37:20.607Z,2.97
2023-09-23T02:40:23.469Z,2.75
2023-09-23T02:43:27.012Z,3.08
2023-09-23T02:46:29.751Z,2.83
2023-09-23T02:49:34.405Z,2.83
2023-09-23T02:52:38.662Z,2.90
2023-09-23T02:55:44.024Z,2.70
2023-09-23T02:58:47.180Z,2.72
2023-09-23T03:01:53.105Z,2.73
2023-09-23T03:05:00.022Z,2.95
2023-09-23T03:08:03.253Z,2.55
2023-09-23T03:11:11.240Z,2.83
2023-09-23T03:14:19.146Z,2.72
2023-09-23T03:17:23.612Z,2.50
2023-09-23T03:20:27.766Z,3.08
2023-09-23T03:23:30.829Z,2.80
2023-09-23T03:26:33.724Z,3.28
2023-09-23T03:29:36.526Z,2.75
2023-09-23T03:32:40.028Z,3.03
2023-09-23T03:35:42.817Z,2.88
2023-09-23T03:38:47.600Z,3.20
2023-09-23T03:41:50.726Z,3.00
2023-09-23T03:44:53.503Z,3.08
2023-09-23T03:47:56.350Z,3.00
2023-09-23T03:50:59.015Z,2.75
2023-09-23T03:54:01.961Z,3.50
2023-09-23T03:57:06.106Z,2.80
2023-09-23T04:00:17.440Z,2.85
2023-09-23T04:03:20.944Z,2.80
2023-09-23T04:06:23.842Z,3.08
2023-09-23T04:09:26.454Z,3.00
2023-09-23T04:12:29.307Z,2.75
2023-09-23T04:15:32.952Z,3.05
2023-09-23T04:18:35.900Z,2.60
2023-09-23T04:21:38.517Z,2.70
2023-09-23T04:24:41.385Z,3.08
2023-09-23T04:27:44.014Z,2.60
2023-09-23T04:30:46.940Z,2.72
2023-09-23T04:33:49.822Z,2.60
2023-09-23T04:36:54.051Z,2.80
2023-09-23T04:39:58.637Z,2.90
2023-09-23T04:43:02.665Z,2.70
2023-09-23T04:46:07.227Z,3.00
2023-09-23T04:49:11.073Z,2.77
2023-09-23T04:52:15.169Z,2.78
2023-09-23T04:55:18.017Z,2.83
2023-09-23T04:58:20.766Z,3.13
2023-09-23T05:01:25.490Z,2.90
2023-09-23T05:04:28.473Z,2.87
2023-09-23T05:07:31.523Z,2.67
2023-09-23T05:10:36.957Z,2.72
2023-09-23T05:13:39.886Z,2.95
2023-09-23T05:16:43.821Z,2.70
2023-09-23T05:19:47.796Z,2.77
2023-09-23T05:22:50.789Z,2.50
2023-09-23T05:25:59.096Z,2.67
2023-09-23T05:29:02.151Z,2.70
2023-09-23T05:32:05.337Z,2.63
2023-09-23T05:35:12.219Z,2.93
2023-09-23T05:38:14.855Z,2.70
2023-09-23T05:41:17.723Z,2.65
2023-09-23T05:44:20.496Z,2.50
2023-09-23T05:47:24.590Z,2.92
2023-09-23T05:50:27.901Z,3.00
2023-09-23T05:53:30.811Z,2.83
2023-09-23T05:56:33.501Z,2.80
2023-09-23T05:59:36.288Z,2.70
2023-09-23T06:02:39.565Z,2.72
2023-09-23T06:05:42.690Z,2.83
2023-09-23T06:08:49.214Z,2.90
2023-09-23T06:11:52.429Z,2.58
2023-09-23T06:14:55.361Z,2.45
2023-09-23T06:17:57.995Z,2.88
2023-09-23T06:21:05.284Z,2.80
2023-09-23T06:24:08.251Z,2.65
2023-09-23T06:27:11.265Z,2.75
2023-09-23T06:30:17.279Z,2.75
2023-09-23T06:33:20.683Z,2.53
2023-09-23T06:36:23.421Z,3.00
2023-09-23T06:39:26.386Z,2.80
2023-09-23T06:42:28.961Z,2.95
2023-09-23T06:45:31.931Z,2.80
2023-09-23T06:48:35.008Z,2.55
2023-09-23T06:51:37.874Z,2.60
2023-09-23T06:54:40.449Z,2.80
2023-09-23T06:57:43.163Z,2.88
2023-09-23T07:00:46.123Z,2.78
2023-09-23T07:03:49.937Z,3.03
2023-09-23T07:06:53.152Z,2.60
2023-09-23T07:09:56.260Z,2.92
2023-09-23T07:12:59.072Z,2.90
2023-09-23T07:16:01.944Z,2.70
2023-09-23T07:19:04.858Z,2.60
2023-09-23T07:22:08.012Z,3.17
2023-09-23T07:25:10.778Z,2.58
2023-09-23T07:28:13.424Z,2.60
2023-09-23T07:31:16.193Z,2.90
2023-09-23T07:34:19.109Z,3.13
2023-09-23T07:37:22.133Z,2.60
2023-09-23T07:40:24.877Z,2.70
2023-09-23T07:43:27.728Z,2.78
2023-09-23T07:46:31.174Z,3.08
2023-09-23T07:49:35.337Z,2.70
2023-09-23T07:52:38.733Z,2.60
2023-09-23T07:55:42.700Z,2.90
2023-09-23T07:58:45.564Z,2.55
2023-09-23T08:01:48.902Z,2.70
2023-09-23T08:04:51.994Z,2.67
2023-09-23T08:07:55.047Z,2.63
2023-09-23T08:10:57.943Z,2.80
2023-09-23T08:14:00.815Z,3.00
2023-09-23T08:17:03.957Z,2.92
2023-09-23T08:20:29.310Z,2.67
2023-09-23T08:23:32.119Z,2.70
2023-09-23T08:26:35.233Z,3.03
2023-09-23T08:29:38.005Z,2.83
2023-09-23T08:32:41.414Z,2.60
2023-09-23T08:35:48.662Z,2.78
2023-09-23T08:38:51.319Z,3.00
2023-09-23T08:41:54.761Z,2.55
2023-09-23T08:44:57.647Z,2.88
2023-09-23T08:48:02.501Z,2.88
2023-09-23T08:51:07.997Z,2.65
2023-09-23T08:54:12.605Z,2.70
2023-09-23T08:57:17.590Z,2.75
2023-09-23T09:00:21.362Z,2.90
2023-09-23T09:03:24.293Z,2.85
2023-09-23T09:06:30.933Z,2.88
2023-09-23T09:09:33.752Z,2.70
2023-09-23T09:12:36.773Z,3.05
2023-09-23T09:15:39.730Z,2.85
2023-09-23T09:18:42.927Z,2.50
2023-09-23T09:21:46.534Z,2.67
2023-09-23T09:24:49.376Z,2.63
2023-09-23T09:27:53.615Z,2.58
2023-09-23T09:30:58.023Z,2.60
2023-09-23T09:34:13.163Z,2.65
2023-09-23T09:37:16.430Z,2.67
2023-09-23T09:40:22.676Z,2.40
2023-09-23T09:43:26.351Z,2.60
2023-09-23T09:46:32.048Z,2.80
2023-09-23T09:49:36.064Z,2.63
2023-09-23T09:52:40.814Z,2.40
2023-09-23T09:55:43.587Z,2.50
2023-09-23T09:58:49.341Z,2.30
2023-09-23T10:01:53.313Z,2.60
2023-09-23T10:05:03.898Z,2.90
2023-09-23T10:08:14.851Z,2.70
2023-09-23T10:11:18.257Z,2.90
2023-09-23T10:14:20.942Z,2.72
2023-09-23T10:17:33.155Z,2.45
2023-09-23T10:20:36.302Z,2.53
2023-09-23T10:23:41.934Z,2.88
2023-09-23T10:26:45.074Z,2.80
2023-09-23T10:29:49.043Z,2.60
2023-09-23T10:32:52.754Z,2.50
2023-09-23T10:35:58.178Z,2.65
2023-09-23T10:39:01.228Z,2.78
2023-09-23T10:42:04.185Z,2.63
2023-09-23T10:45:08.070Z,2.58
2023-09-23T10:48:10.855Z,2.83
2023-09-23T10:51:14.481Z,2.90
2023-09-23T10:54:18.892Z,2.90
2023-09-23T10:57:22.175Z,2.27
2023-09-23T11:00:26.520Z,2.60
2023-09-23T11:03:30.860Z,2.55
2023-09-23T11:06:34.488Z,2.47
2023-09-23T11:09:37.550Z,2.67
2023-09-23T11:12:45.302Z,2.67
2023-09-23T11:15:49.384Z,2.50
2023-09-23T11:18:53.470Z,2.42
2023-09-23T11:21:58.744Z,2.40
2023-09-23T11:25:01.852Z,2.80
2023-09-23T11:28:04.736Z,2.60
2023-09-23T11:31:07.593Z,2.50
2023-09-23T11:34:10.326Z,2.92
2023-09-23T11:37:16.246Z,2.90
2023-09-23T11:40:19.988Z,2.53
2023-09-23T11:43:22.797Z,2.50
2023-09-23T11:46:29.974Z,2.55
2023-09-23T11:49:33.462Z,2.88
2023-09-23T11:52:36.680Z,2.33
2023-09-23T11:55:39.556Z,2.38
2023-09-23T11:58:48.759Z,2.50
2023-09-23T12:01:54.280Z,2.67
2023-09-23T12:04:57.318Z,2.67
2023-09-23T12:08:01.435Z,3.00
2023-09-23T12:11:05.507Z,2.35
2023-09-23T12:14:11.476Z,2.50
2023-09-23T12:17:16.000Z,2.60
2023-09-23T12:20:19.965Z,2.63
2023-09-23T12:23:22.959Z,2.55
2023-09-23T12:26:27.336Z,2.30
2023-09-23T12:29:30.202Z,2.30
2023-09-23T12:32:34.462Z,2.50
2023-09-23T12:35:37.619Z,2.35
2023-09-23T12:38:40.461Z,2.50
2023-09-23T12:41:44.114Z,2.65
2023-09-23T12:44:46.921Z,2.37
2023-09-23T12:47:57.334Z,2.50
2023-09-23T12:51:01.372Z,2.40
2023-09-23T12:54:04.555Z,2.08
2023-09-23T12:57:07.425Z,2.50
2023-09-23T13:00:10.593Z,2.23
2023-09-23T13:03:14.378Z,2.60
2023-09-23T13:06:17.581Z,2.80
2023-09-23T13:09:20.246Z,2.60
2023-09-23T13:12:23.599Z,2.58
2023-09-23T13:15:28.175Z,2.10
2023-09-23T13:18:32.847Z,2.42
2023-09-23T13:21:35.842Z,2.50
2023-09-23T13:24:39.018Z,2.10
2023-09-23T13:27:43.313Z,2.40
2023-09-23T13:30:47.233Z,2.40
2023-09-23T13:33:50.252Z,2.40
2023-09-23T13:36:53.438Z,2.70
2023-09-23T13:39:58.968Z,2.38
2023-09-23T13:43:02.501Z,2.20
2023-09-23T13:46:05.641Z,2.50
2023-09-23T13:49:09.346Z,2.63
2023-09-23T13:52:13.390Z,2.50
2023-09-23T13:55:16.204Z,2.72
2023-09-23T13:58:18.960Z,2.50
2023-09-23T14:01:22.039Z,2.40
2023-09-23T14:04:25.692Z,2.50
2023-09-23T14:07:29.004Z,2.40
2023-09-23T14:10:32.360Z,2.58
2023-09-23T14:13:35.813Z,2.35
2023-09-23T14:16:38.907Z,2.57
2023-09-23T14:19:41.857Z,2.42
2023-09-23T14:22:47.136Z,2.50
2023-09-23T14:25:50.271Z,2.40
2023-09-23T14:28:53.338Z,2.10
2023-09-23T14:31:56.395Z,2.50
2023-09-23T14:34:59.688Z,2.30
2023-09-23T14:38:02.827Z,2.38
2023-09-23T14:41:07.176Z,2.40
2023-09-23T14:44:10.369Z,2.50
2023-09-23T14:47:13.564Z,2.20
2023-09-23T14:50:17.145Z,2.28
2023-09-23T14:53:21.715Z,2.47
2023-09-23T14:56:24.753Z,2.35
2023-09-23T14:59:27.620Z,2.45
2023-09-23T15:02:31.576Z,2.13
2023-09-23T15:05:35.451Z,2.10
2023-09-23T15:08:53.633Z,2.78
2023-09-23T15:12:01.641Z,2.22
2023-09-23T15:15:05.753Z,2.13
2023-09-23T15:18:10.179Z,2.20
2023-09-23T15:21:13.986Z,2.10
2023-09-23T15:24:18.302Z,2.38
2023-09-23T15:27:23.725Z,2.80
2023-09-23T15:30:26.941Z,2.38
2023-09-23T15:33:30.594Z,2.30
2023-09-23T15:36:34.259Z,2.30
2023-09-23T15:39:37.751Z,2.10
2023-09-23T15:42:40.583Z,2.22
2023-09-23T15:45:44.470Z,2.65
2023-09-23T15:48:48.301Z,2.60
2023-09-23T15:51:51.446Z,2.58
2023-09-23T15:54:54.857Z,2.42
2023-09-23T15:57:57.765Z,2.60
2023-09-23T16:01:01.237Z,2.60
2023-09-23T16:04:05.427Z,2.20
2023-09-23T16:07:08.577Z,2.35
2023-09-23T16:10:12.333Z,2.28
2023-09-23T16:13:15.363Z,2.33
2023-09-23T16:16:18.831Z,2.45
2023-09-23T16:19:23.577Z,2.40
2023-09-23T16:22:26.655Z,2.08
2023-09-23T16:25:29.895Z,2.70
2023-09-23T16:28:33.595Z,2.20
2023-09-23T16:31:38.082Z,2.50
2023-09-23T16:34:41.173Z,2.20
2023-09-23T16:37:47.413Z,2.28
2023-09-23T16:40:51.340Z,2.35
2023-09-23T16:43:54.918Z,2.13
2023-09-23T16:46:58.390Z,2.17
2023-09-23T16:50:01.681Z,2.33
2023-09-23T16:53:08.454Z,2.28
2023-09-23T16:56:13.050Z,2.50
2023-09-23T16:59:16.556Z,2.40
2023-09-23T17:02:22.800Z,2.60
2023-09-23T17:05:27.787Z,2.37
2023-09-23T17:08:31.044Z,2.20
2023-09-23T17:11:34.727Z,2.38
2023-09-23T17:14:38.727Z,2.17
2023-09-23T17:17:42.934Z,2.22
2023-09-23T17:20:47.754Z,2.50
2023-09-23T17:23:53.375Z,2.50
2023-09-23T17:26:57.617Z,2.10
2023-09-23T17:30:25.398Z,2.00
2023-09-23T17:33:37.298Z,2.20
2023-09-23T17:36:40.996Z,2.27
2023-09-23T17:39:44.835Z,2.45
2023-09-23T17:42:48.730Z,2.60
2023-09-23T17:45:55.160Z,2.00
2023-09-23T17:49:00.114Z,2.20
2023-09-23T17:52:04.835Z,2.30
2023-09-23T17:55:10.195Z,2.20
2023-09-23T17:58:15.550Z,2.30
2023-09-23T18:01:19.785Z,2.20
2023-09-23T18:04:25.059Z,2.13
2023-09-23T18:07:31.195Z,2.30
2023-09-23T18:10:37.353Z,2.20
2023-09-23T18:13:42.779Z,1.90
2023-09-23T18:16:47.359Z,2.25
2023-09-23T18:19:51.474Z,2.55
2023-09-23T18:22:56.448Z,2.27
2023-09-23T18:26:02.152Z,2.50
2023-09-23T18:29:06.950Z,2.15
2023-09-23T18:32:15.963Z,2.25
2023-09-23T18:35:21.180Z,2.25
2023-09-23T18:38:25.283Z,2.33
2023-09-23T18:41:31.541Z,2.35
2023-09-23T18:44:37.084Z,2.20
2023-09-23T18:47:41.471Z,1.98
2023-09-23T18:50:49.359Z,1.80
2023-09-23T18:53:55.244Z,2.10
2023-09-23T18:56:59.946Z,2.20
2023-09-23T19:00:05.061Z,2.15
2023-09-23T19:03:09.300Z,2.10
2023-09-23T19:06:13.485Z,2.20
2023-09-23T19:09:19.229Z,2.20
2023-09-23T19:12:24.265Z,2.13
2023-09-23T19:15:28.466Z,2.08
2023-09-23T19:18:32.307Z,2.20
2023-09-23T19:21:36.103Z,2.33
2023-09-23T19:24:39.618Z,2.10
2023-09-23T19:27:44.550Z,2.50
2023-09-23T19:30:51.444Z,2.45
2023-09-23T19:33:58.619Z,2.38
2023-09-23T19:37:02.192Z,2.40
2023-09-23T19:40:07.571Z,2.17
2023-09-23T19:43:13.781Z,2.20
2023-09-23T19:46:17.573Z,2.50
2023-09-23T19:49:20.978Z,2.10
2023-09-23T19:52:25.738Z,2.20
2023-09-23T19:55:30.059Z,2.03
2023-09-23T19:58:34.399Z,2.00
2023-09-23T20:01:39.516Z,2.30
2023-09-23T20:04:46.471Z,2.40
2023-09-23T20:07:50.324Z,2.30
2023-09-23T20:10:57.988Z,2.23
2023-09-23T20:14:01.865Z,1.90
2023-09-23T20:17:08.037Z,2.10
2023-09-23T20:20:12.128Z,2.22
2023-09-23T20:23:16.281Z,1.80
2023-09-23T20:26:22.742Z,2.00
2023-09-23T20:29:26.310Z,2.00
2023-09-23T20:32:30.274Z,2.17
2023-09-23T20:35:35.251Z,2.15
2023-09-23T20:38:40.637Z,2.35
2023-09-23T20:41:45.295Z,2.13
2023-09-23T20:44:49.571Z,2.38
2023-09-23T20:47:53.253Z,2.15
2023-09-23T20:50:57.523Z,2.20
2023-09-23T20:54:01.320Z,2.10
2023-09-23T20:57:06.185Z,2.23
2023-09-23T21:00:09.942Z,2.25
2023-09-23T21:03:15.769Z,2.00
2023-09-23T21:06:20.259Z,2.28
2023-09-23T21:09:22.790Z,2.17
2023-09-23T21:12:25.416Z,2.10
2023-09-23T21:15:29.789Z,2.08
2023-09-23T21:18:33.022Z,2.30
2023-09-23T21:21:35.849Z,2.20
2023-09-23T21:24:38.688Z,2.10
2023-09-23T21:27:41.343Z,2.03
2023-09-23T21:30:44.122Z,2.40
2023-09-23T21:33:47.260Z,2.60
2023-09-23T21:36:50.205Z,2.20
2023-09-23T21:39:53.745Z,2.22
2023-09-23T21:42:56.579Z,2.20
2023-09-23T21:45:59.241Z,2.22
2023-09-23T21:49:01.829Z,2.25
2023-09-23T21:52:04.597Z,2.20
2023-09-23T21:55:07.873Z,2.10
2023-09-23T21:58:10.680Z,1.90
2023-09-23T22:01:13.594Z,2.20
2023-09-23T22:04:17.042Z,1.92
2023-09-23T22:07:19.931Z,2.40
2023-09-23T22:10:23.665Z,2.40
2023-09-23T22:13:26.403Z,2.30
2023-09-23T22:16:29.115Z,2.33
2023-09-23T22:19:32.490Z,2.05
2023-09-23T22:22:35.262Z,2.20
2023-09-23T22:25:41.146Z,2.00
2023-09-23T22:28:44.029Z,2.27
2023-09-23T22:31:46.917Z,2.15
2023-09-23T22:34:50.424Z,1.92
2023-09-23T22:37:53.503Z,2.10
2023-09-23T22:40:56.856Z,2.15
2023-09-23T22:44:00.137Z,2.10
2023-09-23T22:47:05.365Z,2.50
2023-09-23T22:50:09.859Z,1.90
2023-09-23T22:53:12.684Z,1.92
2023-09-23T22:56:15.219Z,2.22
2023-09-23T22:59:19.094Z,2.27
2023-09-23T23:02:22.108Z,1.90
2023-09-23T23:05:27.053Z,2.10
2023-09-23T23:08:31.355Z,2.10
2023-09-23T23:11:34.051Z,2.00
2023-09-23T23:14:37.185Z,2.17
2023-09-23T23:17:40.224Z,1.90
2023-09-23T23:20:45.159Z,2.10
2023-09-23T23:23:48.180Z,2.30
2023-09-23T23:26:51.187Z,2.20
2023-09-23T23:29:54.936Z,2.00
2023-09-23T23:32:58.863Z,1.83
2023-09-23T23:36:03.655Z,1.98
2023-09-23T23:39:08.883Z,1.90
2023-09-23T23:42:12.014Z,2.00
2023-09-23T23:45:14.968Z,2.10
2023-09-23T23:48:17.725Z,2.10
2023-09-23T23:51:24.042Z,2.00
2023-09-23T23:54:28.844Z,2.05
2023-09-23T23:57:31.377Z,2.10
